Time;durP1;ratioP1;P1;durP2;ratioP2;P2;SDS_P1;SDS_P2;PMS_P1;PMS_P2;Temp;Humidity;BMP_temperature;BMP_pressure;BME280_temperature;BME280_humidity;BME280_pressure;Samples;Min_cycle;Max_cycle;Signal;HPM_P1;HPM_P2
2022/11/15 00:01:44;;;;;;;36.75;14.45;;;6.00;99.90;;;;;;5079757;28;20635;-77
2022/11/15 00:04:30;;;;;;;38.15;14.60;;;5.90;99.90;;;;;;5082213;28;20153;-77
2022/11/15 00:07:16;;;;;;;33.58;12.88;;;5.90;99.90;;;;;;5080017;28;20545;-77
2022/11/15 00:10:22;;;;;;;35.72;13.85;;;6.00;99.90;;;;;;5085865;28;20514;-77
2022/11/15 00:13:11;;;;;;;40.85;14.13;;;6.00;99.90;;;;;;5079437;28;20055;-77
2022/11/15 00:15:58;;;;;;;32.22;13.10;;;6.00;99.90;;;;;;5083644;28;20047;-77
2022/11/15 00:18:44;;;;;;;34.33;13.15;;;5.90;99.90;;;;;;5078252;28;20055;-77
2022/11/15 00:21:35;;;;;;;34.75;14.43;;;5.90;99.90;;;;;;5077716;28;20052;-77
2022/11/15 00:24:21;;;;;;;34.50;13.48;;;5.90;99.90;;;;;;5081100;28;20455;-77
2022/11/15 00:27:06;;;;;;;34.28;14.57;;;5.90;99.90;;;;;;5080085;28;20115;-77
2022/11/15 00:29:55;;;;;;;33.65;14.63;;;5.90;99.90;;;;;;5080630;28;20442;-77
2022/11/15 00:32:42;;;;;;;37.92;14.73;;;5.90;99.90;;;;;;5082098;28;20055;-77
2022/11/15 00:35:28;;;;;;;39.15;14.35;;;5.90;99.90;;;;;;5083497;28;20509;-77
2022/11/15 00:38:14;;;;;;;32.90;13.80;;;5.90;99.90;;;;;;5074173;28;20419;-77
2022/11/15 00:41:01;;;;;;;35.50;14.13;;;5.90;99.90;;;;;;5081340;28;20055;-77
2022/11/15 00:43:53;;;;;;;36.80;14.45;;;5.90;99.90;;;;;;5081196;28;20050;-77
2022/11/15 00:46:39;;;;;;;32.45;13.13;;;5.90;99.90;;;;;;5079872;28;20521;-77
2022/11/15 00:49:25;;;;;;;40.28;16.15;;;5.80;99.90;;;;;;5074705;28;20051;-77
2022/11/15 00:52:11;;;;;;;39.65;15.10;;;5.50;99.90;;;;;;5090778;28;20059;-77
2022/11/15 00:54:57;;;;;;;36.17;14.13;;;5.70;99.90;;;;;;5085156;28;20546;-77
2022/11/15 00:57:43;;;;;;;39.33;14.55;;;5.80;99.90;;;;;;5083089;28;20059;-78
2022/11/15 01:00:29;;;;;;;37.08;14.90;;;5.80;99.90;;;;;;5080310;28;20410;-78
2022/11/15 01:03:15;;;;;;;39.25;15.55;;;5.90;99.90;;;;;;5079101;28;20059;-78
2022/11/15 01:06:01;;;;;;;38.47;15.75;;;5.90;99.90;;;;;;5071793;28;20587;-78
2022/11/15 01:08:46;;;;;;;46.22;17.58;;;5.90;99.90;;;;;;5077994;28;20063;-77
2022/11/15 01:11:31;;;;;;;48.50;17.00;;;5.80;99.90;;;;;;5074890;28;20050;-77
2022/11/15 01:14:17;;;;;;;51.72;20.30;;;5.80;99.90;;;;;;5080917;28;20047;-77
2022/11/15 01:17:09;;;;;;;47.80;19.98;;;5.70;99.90;;;;;;5079820;28;20043;-77
2022/11/15 01:19:54;;;;;;;47.33;18.63;;;5.70;99.90;;;;;;5084028;28;20067;-77
2022/11/15 01:22:40;;;;;;;44.83;18.23;;;5.80;99.90;;;;;;5077312;28;20445;-77
2022/11/15 01:25:26;;;;;;;43.60;17.05;;;5.80;99.90;;;;;;5083720;28;20129;-77
2022/11/15 01:28:11;;;;;;;39.05;16.95;;;5.80;99.90;;;;;;5078335;28;20086;-77
2022/11/15 01:30:59;;;;;;;36.75;16.08;;;5.80;99.90;;;;;;5086842;28;20505;-77
2022/11/15 01:33:46;;;;;;;40.25;17.20;;;5.80;99.90;;;;;;5082110;28;20054;-77
2022/11/15 01:36:31;;;;;;;35.97;15.60;;;5.80;99.90;;;;;;5077956;28;20051;-77
2022/11/15 01:39:17;;;;;;;31.92;14.50;;;5.80;99.90;;;;;;5081253;28;20073;-77
2022/11/15 01:42:03;;;;;;;30.83;13.32;;;5.70;99.90;;;;;;5074901;28;20134;-77
2022/11/15 01:44:54;;;;;;;34.15;14.45;;;5.80;99.90;;;;;;5073095;28;20055;-77
2022/11/15 01:47:45;;;;;;;31.83;13.95;;;5.80;99.90;;;;;;5075989;28;20110;-77
2022/11/15 01:50:32;;;;;;;33.30;14.25;;;5.80;99.90;;;;;;5072574;28;20051;-78
2022/11/15 01:53:21;;;;;;;30.40;13.68;;;5.80;99.90;;;;;;5078976;28;20055;-77
2022/11/15 01:56:16;;;;;;;34.85;13.57;;;5.80;99.90;;;;;;5079276;28;20556;-77
2022/11/15 01:59:05;;;;;;;34.90;14.15;;;5.80;99.90;;;;;;5076528;28;20178;-77
2022/11/15 02:01:51;;;;;;;27.25;12.75;;;5.80;99.90;;;;;;5078431;28;20063;-77
2022/11/15 02:04:42;;;;;;;30.38;14.25;;;5.80;99.90;;;;;;5084324;28;20613;-77
2022/11/15 02:07:30;;;;;;;26.95;12.45;;;5.80;99.90;;;;;;5083676;28;20058;-77
2022/11/15 02:10:21;;;;;;;31.25;13.57;;;5.90;99.90;;;;;;5074585;28;20127;-77
2022/11/15 02:13:06;;;;;;;27.17;13.75;;;5.90;99.90;;;;;;5081505;28;20517;-78
2022/11/15 02:16:28;;;;;;;29.55;13.25;;;5.90;99.90;;;;;;5082216;28;20055;-78
2022/11/15 02:19:33;;;;;;;30.38;13.38;;;5.90;99.90;;;;;;5078870;28;20097;-78
2022/11/15 02:22:36;;;;;;;31.25;13.20;;;5.90;99.90;;;;;;5078456;28;20174;-77
2022/11/15 02:25:40;;;;;;;;;;;5.80;99.90;;;;;;5077784;28;20064;-77
2022/11/15 02:28:44;;;;;;;30.50;12.77;;;5.80;99.90;;;;;;5072290;28;20404;-77
2022/11/15 02:31:36;;;;;;;30.23;13.23;;;5.90;99.90;;;;;;5075493;28;21971;-77
2022/11/15 02:34:35;;;;;;;26.75;12.35;;;5.90;99.90;;;;;;5078029;28;20108;-77
2022/11/15 02:37:42;;;;;;;31.95;13.95;;;5.90;99.90;;;;;;5073988;28;20062;-77
2022/11/15 02:40:51;;;;;;;34.15;13.98;;;5.90;99.90;;;;;;5080822;28;20058;-77
2022/11/15 02:44:00;;;;;;;36.75;14.20;;;5.90;99.90;;;;;;5079799;28;20172;-77
2022/11/15 02:50:00;;;;;;;72.55;25.58;;;5.90;99.90;;;;;;5079827;28;20102;-77
2022/11/15 02:52:47;;;;;;;205.23;52.65;;;5.90;99.90;;;;;;5076229;28;20558;-77
2022/11/15 02:55:33;;;;;;;108.00;34.05;;;5.90;99.90;;;;;;5078910;28;20050;-77
2022/11/15 02:58:43;;;;;;;89.22;30.05;;;5.90;99.90;;;;;;5076774;28;20129;-77
2022/11/15 03:01:46;;;;;;;42.28;18.10;;;5.90;99.90;;;;;;5083610;28;20098;-78
2022/11/15 03:05:12;;;;;;;37.08;15.25;;;5.90;99.90;;;;;;5075115;28;20068;-77
2022/11/15 03:08:54;;;;;;;31.48;13.65;;;5.90;99.90;;;;;;5079905;28;20051;-77
2022/11/15 03:11:47;;;;;;;31.27;13.52;;;5.90;99.90;;;;;;5058473;28;20048;-77
2022/11/15 03:14:39;;;;;;;32.97;14.50;;;5.90;99.90;;;;;;5085716;28;20920;-77
2022/11/15 03:17:43;;;;;;;37.38;16.90;;;5.90;99.90;;;;;;5084421;28;20616;-77
2022/11/15 03:20:30;;;;;;;32.65;14.95;;;5.90;99.90;;;;;;5085767;28;20043;-77
2022/11/15 03:23:17;;;;;;;33.97;15.00;;;5.90;99.90;;;;;;5083785;28;20105;-77
2022/11/15 03:26:07;;;;;;;40.35;17.17;;;5.90;99.90;;;;;;5087196;28;20051;-77
2022/11/15 03:28:58;;;;;;;35.90;16.50;;;5.90;99.90;;;;;;5080395;28;20098;-77
2022/11/15 03:31:48;;;;;;;31.52;14.20;;;5.90;99.90;;;;;;5082926;28;20055;-77
2022/11/15 03:35:04;;;;;;;29.35;13.43;;;5.90;99.90;;;;;;5081173;28;20121;-77
2022/11/15 03:37:59;;;;;;;28.40;13.07;;;5.80;99.90;;;;;;5086566;28;20836;-77
2022/11/15 03:40:57;;;;;;;32.35;13.52;;;5.80;99.90;;;;;;5077511;28;20282;-77
2022/11/15 03:43:54;;;;;;;33.78;14.40;;;5.80;99.90;;;;;;5084148;28;20047;-77
2022/11/15 03:46:57;;;;;;;34.33;15.02;;;5.80;99.90;;;;;;5078874;28;20063;-77
2022/11/15 03:49:46;;;;;;;;;;;5.80;99.90;;;;;;5082019;28;20108;-77
2022/11/15 03:52:34;;;;;;;33.08;14.27;;;5.80;99.90;;;;;;5085275;28;19935;-77
2022/11/15 03:55:21;;;;;;;29.92;14.20;;;5.80;99.90;;;;;;5080993;28;20048;-77
2022/11/15 03:58:06;;;;;;;30.13;13.00;;;5.80;99.90;;;;;;5082264;28;20186;-77
2022/11/15 04:00:51;;;;;;;26.67;12.88;;;5.80;99.90;;;;;;5083305;28;20051;-77
2022/11/15 04:03:37;;;;;;;30.17;12.20;;;5.80;99.90;;;;;;5082131;28;20074;-77
2022/11/15 04:06:23;;;;;;;29.60;12.55;;;5.70;99.90;;;;;;5082021;28;20051;-77
2022/11/15 04:09:08;;;;;;;30.27;13.57;;;5.70;99.90;;;;;;5075611;28;20407;-77
2022/11/15 04:11:54;;;;;;;26.23;12.40;;;5.70;99.90;;;;;;5075743;28;20052;-77
2022/11/15 04:15:06;;;;;;;31.55;13.95;;;5.70;99.90;;;;;;5081107;28;20149;-77
2022/11/15 04:17:46;;;;;;;29.15;12.80;;;5.80;99.90;;;;;;5081075;28;20047;-77
2022/11/15 04:26:39;;;;;;;29.52;13.98;;;5.80;99.90;;;;;;5080804;28;20175;-77
2022/11/15 04:29:34;;;;;;;37.63;13.68;;;5.80;99.90;;;;;;5078255;28;20567;-77
2022/11/15 04:32:20;;;;;;;31.52;13.50;;;5.90;99.90;;;;;;5085080;28;20423;-77
2022/11/15 04:35:05;;;;;;;34.45;14.57;;;5.90;99.90;;;;;;5078447;28;20055;-77
2022/11/15 04:37:51;;;;;;;32.75;13.60;;;5.90;99.90;;;;;;5081566;28;20051;-77
2022/11/15 04:40:37;;;;;;;31.95;14.02;;;5.90;99.90;;;;;;5078741;28;20456;-77
2022/11/15 04:43:22;;;;;;;32.00;14.55;;;5.90;99.90;;;;;;5081173;28;20059;-77
2022/11/15 04:46:08;;;;;;;34.00;14.10;;;5.90;99.90;;;;;;5076311;28;20659;-78
2022/11/15 04:48:54;;;;;;;31.65;15.00;;;5.90;99.90;;;;;;5080581;28;20043;-78
2022/11/15 04:51:44;;;;;;;34.35;15.52;;;6.00;99.90;;;;;;5076785;28;20051;-78
2022/11/15 04:54:29;;;;;;;33.05;15.23;;;5.90;99.90;;;;;;5076414;28;20051;-78
2022/11/15 04:57:15;;;;;;;32.40;12.52;;;5.90;99.90;;;;;;5079475;28;20062;-78
2022/11/15 05:00:06;;;;;;;36.90;14.95;;;6.00;99.90;;;;;;5080829;28;20955;-78
2022/11/15 05:05:57;;;;;;;35.40;15.63;;;5.90;99.90;;;;;;5082331;28;20124;-78
2022/11/15 05:08:43;;;;;;;34.08;14.98;;;6.00;99.90;;;;;;5082310;28;20047;-78
2022/11/15 05:11:28;;;;;;;45.30;18.80;;;6.00;99.90;;;;;;5082942;28;20051;-78
2022/11/15 05:14:14;;;;;;;45.38;20.50;;;6.00;99.90;;;;;;5078902;28;20125;-78
2022/11/15 05:17:00;;;;;;;43.30;18.02;;;6.00;99.90;;;;;;5076524;28;20062;-77
2022/11/15 05:19:45;;;;;;;39.65;16.40;;;6.00;99.90;;;;;;5078592;28;20925;-77
2022/11/15 05:22:31;;;;;;;39.08;17.30;;;6.00;99.90;;;;;;5078854;28;20415;-77
2022/11/15 05:25:18;;;;;;;41.88;16.50;;;6.00;99.90;;;;;;5086923;28;20093;-77
2022/11/15 05:28:03;;;;;;;37.88;16.65;;;6.00;99.90;;;;;;5080372;28;20051;-77
2022/11/15 05:30:49;;;;;;;40.72;17.30;;;6.10;99.90;;;;;;5080491;28;20120;-77
2022/11/15 05:33:39;;;;;;;39.35;16.55;;;6.10;99.90;;;;;;5076703;28;20043;-77
2022/11/15 05:36:40;;;;;;;42.20;17.23;;;6.10;99.90;;;;;;5079788;28;20054;-77
2022/11/15 05:39:26;;;;;;;46.58;18.75;;;6.10;99.90;;;;;;5084210;28;20078;-78
2022/11/15 05:42:15;;;;;;;40.13;18.30;;;6.10;99.90;;;;;;5078863;28;21079;-78
2022/11/15 05:45:04;;;;;;;46.70;19.38;;;6.10;99.90;;;;;;5076453;28;20409;-78
2022/11/15 05:47:51;;;;;;;45.42;18.70;;;6.10;99.90;;;;;;5088653;28;20522;-78
2022/11/15 05:50:41;;;;;;;44.30;18.67;;;6.10;99.90;;;;;;5079638;28;20055;-78
2022/11/15 05:53:26;;;;;;;40.85;17.55;;;6.10;99.90;;;;;;5077137;28;20057;-78
2022/11/15 05:56:13;;;;;;;42.28;18.40;;;6.10;99.90;;;;;;5080369;28;20047;-78
2022/11/15 05:58:59;;;;;;;41.80;17.48;;;6.10;99.90;;;;;;5076950;28;20059;-78
2022/11/15 06:01:45;;;;;;;42.60;18.15;;;6.10;99.90;;;;;;5082977;28;20050;-78
2022/11/15 06:04:31;;;;;;;41.95;17.17;;;6.10;99.90;;;;;;5080209;28;20055;-78
2022/11/15 06:07:16;;;;;;;39.80;17.08;;;6.10;99.90;;;;;;5074044;28;20047;-78
2022/11/15 06:10:02;;;;;;;39.92;17.08;;;6.10;99.90;;;;;;5078091;28;20055;-78
2022/11/15 06:12:58;;;;;;;40.33;17.13;;;6.10;99.90;;;;;;5081698;28;20114;-78
2022/11/15 06:15:44;;;;;;;42.85;18.05;;;6.20;99.90;;;;;;5089463;28;20094;-78
2022/11/15 06:18:33;;;;;;;43.65;18.23;;;6.20;99.90;;;;;;5078095;28;20052;-78
2022/11/15 06:21:19;;;;;;;47.47;18.73;;;6.30;99.90;;;;;;5084167;28;20078;-78
2022/11/15 06:24:06;;;;;;;42.38;17.55;;;6.30;99.90;;;;;;5076824;28;20055;-78
2022/11/15 06:26:51;;;;;;;41.33;16.10;;;6.30;99.90;;;;;;5078213;28;20047;-78
2022/11/15 06:29:37;;;;;;;42.35;18.17;;;6.30;99.90;;;;;;5080680;28;20447;-78
2022/11/15 06:32:22;;;;;;;43.58;17.80;;;6.30;99.90;;;;;;5084949;28;20051;-78
2022/11/15 06:35:08;;;;;;;45.42;18.85;;;6.30;99.90;;;;;;5081151;28;20051;-78
2022/11/15 06:37:53;;;;;;;38.65;18.23;;;6.30;99.90;;;;;;5098804;28;20507;-78
2022/11/15 06:40:39;;;;;;;42.55;18.15;;;6.30;99.90;;;;;;5080960;28;20047;-78
2022/11/15 06:43:25;;;;;;;39.70;18.67;;;6.40;99.90;;;;;;5080847;28;20047;-78
2022/11/15 06:46:10;;;;;;;45.95;19.65;;;6.40;99.90;;;;;;5084375;28;20055;-78
2022/11/15 06:48:56;;;;;;;55.45;20.58;;;6.30;99.90;;;;;;5079016;28;20309;-78
2022/11/15 06:51:42;;;;;;;46.15;19.63;;;6.40;99.90;;;;;;5085212;28;20067;-78
2022/11/15 06:54:27;;;;;;;43.03;19.80;;;6.40;99.90;;;;;;5079171;28;20055;-78
2022/11/15 06:57:13;;;;;;;43.55;19.52;;;6.40;99.90;;;;;;5083753;28;20410;-78
2022/11/15 06:59:59;;;;;;;45.13;20.70;;;6.50;99.90;;;;;;5083326;28;20097;-78
2022/11/15 07:02:44;;;;;;;46.53;18.88;;;6.50;99.90;;;;;;5077861;28;20527;-78
2022/11/15 07:05:30;;;;;;;47.50;20.98;;;6.50;99.90;;;;;;5083793;28;20079;-77
2022/11/15 07:08:15;;;;;;;46.70;19.80;;;6.60;99.90;;;;;;5082884;28;20055;-78
2022/11/15 07:11:03;;;;;;;41.08;18.95;;;6.50;99.90;;;;;;5082989;28;20063;-78
2022/11/15 07:13:49;;;;;;;35.75;16.77;;;6.60;99.90;;;;;;5079493;28;20047;-78
2022/11/15 07:16:36;;;;;;;36.47;16.10;;;6.60;99.90;;;;;;5081355;28;20104;-78
2022/11/15 07:19:21;;;;;;;37.42;16.13;;;6.60;99.90;;;;;;5078279;28;20060;-78
2022/11/15 07:22:07;;;;;;;36.92;16.92;;;6.70;99.90;;;;;;5082215;28;20418;-78
2022/11/15 07:24:53;;;;;;;37.08;17.10;;;6.70;99.90;;;;;;5082428;28;20055;-78
2022/11/15 07:27:39;;;;;;;39.58;17.38;;;6.70;99.90;;;;;;5078400;28;20067;-79
2022/11/15 07:30:26;;;;;;;36.88;16.90;;;6.70;99.90;;;;;;5081029;28;20047;-79
2022/11/15 07:33:11;;;;;;;36.15;15.75;;;6.70;99.90;;;;;;5083985;28;20099;-79
2022/11/15 07:36:01;;;;;;;36.67;17.05;;;6.80;99.90;;;;;;5080004;28;20051;-79
2022/11/15 07:38:47;;;;;;;39.40;18.25;;;6.80;99.90;;;;;;5079566;28;20101;-79
2022/11/15 07:41:32;;;;;;;35.53;15.75;;;6.80;99.90;;;;;;5082120;28;20043;-79
2022/11/15 07:44:18;;;;;;;37.58;17.42;;;6.90;99.90;;;;;;5084937;28;20055;-79
2022/11/15 07:47:03;;;;;;;35.10;16.02;;;6.90;99.90;;;;;;5083000;28;20406;-79
2022/11/15 07:49:49;;;;;;;38.63;16.95;;;6.90;99.90;;;;;;5086144;28;20055;-79
2022/11/15 07:52:35;;;;;;;33.42;15.55;;;6.80;99.90;;;;;;5080820;28;20048;-78
2022/11/15 07:55:21;;;;;;;34.22;15.07;;;6.80;99.90;;;;;;5085551;28;20047;-78
2022/11/15 07:58:09;;;;;;;31.98;14.73;;;6.80;99.90;;;;;;5088298;28;20043;-79
2022/11/15 08:00:54;;;;;;;30.85;15.00;;;6.80;99.90;;;;;;5075879;28;20398;-79
2022/11/15 08:03:40;;;;;;;34.88;15.18;;;6.80;99.90;;;;;;5082610;28;20206;-79
2022/11/15 08:06:26;;;;;;;33.03;15.13;;;6.80;99.90;;;;;;5079147;28;20062;-79
2022/11/15 08:09:12;;;;;;;33.70;15.00;;;6.80;99.90;;;;;;5078791;28;20115;-79
2022/11/15 08:11:57;;;;;;;32.80;14.00;;;6.90;99.90;;;;;;5091088;28;20054;-79
2022/11/15 08:14:43;;;;;;;32.25;14.45;;;6.90;99.90;;;;;;5079072;28;20055;-79
2022/11/15 08:17:32;;;;;;;32.30;14.60;;;6.80;99.90;;;;;;5077585;28;20054;-79
2022/11/15 08:20:19;;;;;;;31.50;15.60;;;6.80;99.90;;;;;;5081411;28;20390;-79
2022/11/15 08:23:05;;;;;;;37.08;16.60;;;6.90;99.90;;;;;;5086202;28;20051;-79
2022/11/15 08:25:50;;;;;;;36.97;16.58;;;6.90;99.90;;;;;;5078798;28;20175;-79
2022/11/15 08:28:36;;;;;;;34.38;16.08;;;6.90;99.90;;;;;;5075887;28;20060;-79
2022/11/15 08:31:22;;;;;;;36.83;15.48;;;6.90;99.90;;;;;;5079818;28;20059;-79
2022/11/15 08:34:08;;;;;;;33.60;15.55;;;6.90;99.90;;;;;;5083200;28;20050;-79
2022/11/15 08:36:53;;;;;;;34.50;15.32;;;6.90;99.90;;;;;;5081589;28;20043;-79
2022/11/15 08:39:39;;;;;;;29.52;14.75;;;6.90;99.90;;;;;;5079348;28;20432;-78
2022/11/15 08:42:24;;;;;;;29.52;14.05;;;7.00;99.90;;;;;;5078603;28;20042;-78
2022/11/15 08:45:13;;;;;;;30.73;14.60;;;7.00;99.90;;;;;;5084745;28;20450;-79
2022/11/15 08:48:01;;;;;;;30.48;14.45;;;7.00;99.90;;;;;;5077527;28;20103;-79
2022/11/15 08:50:47;;;;;;;33.22;15.55;;;7.00;99.90;;;;;;5077245;28;20051;-78
2022/11/15 08:53:33;;;;;;;31.27;16.83;;;7.10;99.90;;;;;;5083998;28;20090;-78
2022/11/15 08:56:19;;;;;;;35.65;16.20;;;7.10;99.90;;;;;;5077757;28;20101;-78
2022/11/15 08:59:05;;;;;;;30.88;15.38;;;7.20;99.90;;;;;;5080244;28;20197;-78
2022/11/15 09:01:50;;;;;;;30.70;14.13;;;7.30;99.90;;;;;;5074446;28;20051;-79
2022/11/15 09:04:36;;;;;;;34.30;14.98;;;7.40;99.90;;;;;;5077997;28;20055;-80
2022/11/15 09:07:22;;;;;;;37.28;16.50;;;7.40;99.90;;;;;;5084683;28;20454;-80
2022/11/15 09:10:08;;;;;;;37.13;18.10;;;7.40;99.90;;;;;;5078964;28;20094;-79
2022/11/15 09:12:54;;;;;;;33.78;15.38;;;7.40;99.90;;;;;;5080494;28;20043;-79
2022/11/15 09:15:40;;;;;;;43.40;19.80;;;7.40;99.90;;;;;;5079849;28;20197;-80
2022/11/15 09:18:27;;;;;;;32.55;17.85;;;7.40;99.90;;;;;;5074784;28;20046;-80
2022/11/15 09:21:13;;;;;;;37.00;17.67;;;7.40;99.90;;;;;;5080123;28;20063;-80
2022/11/15 09:23:59;;;;;;;40.35;17.27;;;7.30;99.90;;;;;;5076897;28;20051;-80
2022/11/15 09:26:44;;;;;;;34.45;16.73;;;7.40;99.90;;;;;;5078558;28;20046;-80
2022/11/15 09:29:30;;;;;;;34.20;16.25;;;7.40;99.90;;;;;;5072496;28;20075;-80
2022/11/15 09:32:16;;;;;;;34.60;16.13;;;7.40;99.90;;;;;;5085837;28;20178;-80
2022/11/15 09:35:02;;;;;;;29.35;14.45;;;7.30;99.90;;;;;;5075469;28;20393;-80
2022/11/15 09:37:48;;;;;;;32.50;15.95;;;7.40;99.90;;;;;;5081062;28;20055;-80
2022/11/15 09:40:40;;;;;;;24.77;10.68;;;7.30;99.90;;;;;;5076261;28;20518;-79
2022/11/15 09:43:39;;;;;;;29.38;14.82;;;7.30;99.90;;;;;;5073194;28;20055;-79
2022/11/15 09:46:43;;;;;;;31.38;15.40;;;7.40;99.90;;;;;;5075285;28;20043;-79
2022/11/15 09:49:30;;;;;;;28.73;14.57;;;7.40;99.90;;;;;;5078805;28;20056;-79
2022/11/15 09:52:10;;;;;;;28.85;14.75;;;7.40;99.90;;;;;;5082941;28;20063;-79
2022/11/15 09:54:40;;;;;;;32.20;15.80;;;7.40;99.90;;;;;;5070789;28;20033;-80
2022/11/15 09:57:34;;;;;;;30.83;15.30;;;7.40;99.90;;;;;;5067521;28;20040;-80
2022/11/15 10:00:17;;;;;;;33.60;16.08;;;7.40;99.90;;;;;;5067383;28;20044;-80
2022/11/15 10:03:35;;;;;;;31.63;14.80;;;7.40;99.90;;;;;;5081153;28;20040;-80
2022/11/15 10:06:04;;;;;;;32.45;15.10;;;7.40;99.90;;;;;;5082810;28;20064;-80
2022/11/15 10:08:47;;;;;;;32.22;15.57;;;7.40;99.90;;;;;;5081936;28;20036;-80
2022/11/15 10:11:23;;;;;;;26.48;13.75;;;7.50;99.90;;;;;;5066231;28;20410;-80
2022/11/15 10:14:15;;;;;;;39.67;19.58;;;7.50;99.90;;;;;;5081915;28;20036;-80
2022/11/15 10:16:58;;;;;;;43.38;20.45;;;7.50;99.90;;;;;;5083851;28;20514;-80
2022/11/15 10:19:47;;;;;;;31.35;16.27;;;7.40;99.90;;;;;;5084095;28;20051;-80
2022/11/15 10:22:58;;;;;;;32.60;14.70;;;7.50;99.90;;;;;;5076405;28;20040;-80
2022/11/15 10:25:28;;;;;;;31.13;14.52;;;7.50;99.90;;;;;;5034080;28;20393;-80
2022/11/15 10:27:59;;;;;;;30.33;15.20;;;7.50;99.90;;;;;;5016772;28;20048;-79
2022/11/15 10:30:45;;;;;;;36.15;17.35;;;7.50;99.90;;;;;;5061539;28;20560;-80
2022/11/15 10:33:33;;;;;;;29.85;14.48;;;7.50;99.90;;;;;;5069957;28;20115;-80
2022/11/15 10:36:19;;;;;;;30.55;14.98;;;7.10;99.90;;;;;;5068532;28;20076;-80
2022/11/15 10:38:49;;;;;;;33.10;16.02;;;7.40;99.90;;;;;;5085688;28;20049;-80
2022/11/15 10:41:30;;;;;;;36.33;17.25;;;7.50;99.90;;;;;;5065889;28;20047;-80
2022/11/15 10:44:15;;;;;;;32.55;15.02;;;7.40;99.90;;;;;;5068670;28;20047;-80
2022/11/15 10:46:47;;;;;;;32.60;16.15;;;7.40;99.90;;;;;;5072968;28;20056;-80
2022/11/15 10:49:20;;;;;;;33.27;15.53;;;7.40;99.90;;;;;;5067184;28;20801;-80
2022/11/15 10:51:51;;;;;;;;;;;7.50;99.90;;;;;;5081090;28;20300;-80
2022/11/15 10:54:35;;;;;;;32.22;15.70;;;7.40;99.90;;;;;;5068339;28;19989;-79
2022/11/15 10:57:16;;;;;;;35.22;16.80;;;7.50;99.90;;;;;;5062875;28;20161;-79
2022/11/15 10:59:57;;;;;;;32.58;15.07;;;7.50;99.90;;;;;;5068611;28;20051;-79
2022/11/15 11:02:29;;;;;;;31.27;15.45;;;7.50;99.90;;;;;;5077118;28;20167;-79
2022/11/15 11:04:58;;;;;;;33.95;16.70;;;7.60;99.90;;;;;;5067986;28;20057;-79
2022/11/15 11:07:28;;;;;;;34.25;15.68;;;7.70;99.90;;;;;;5068535;28;20032;-79
2022/11/15 11:10:16;;;;;;;32.58;16.48;;;7.70;99.90;;;;;;5083215;28;20075;-79
2022/11/15 11:13:24;;;;;;;33.20;15.70;;;7.70;99.90;;;;;;5064929;28;20089;-79
2022/11/15 11:16:13;;;;;;;35.33;17.00;;;7.70;99.90;;;;;;5065574;28;20053;-80
2022/11/15 11:19:04;;;;;;;40.85;18.73;;;7.70;99.90;;;;;;5074268;28;20392;-79
2022/11/15 11:22:05;;;;;;;37.20;16.40;;;7.70;99.90;;;;;;5088056;28;20486;-79
2022/11/15 11:24:38;;;;;;;35.90;17.10;;;7.70;99.90;;;;;;5079459;28;20036;-79
2022/11/15 11:27:08;;;;;;;34.50;15.90;;;7.60;99.90;;;;;;5075560;28;20040;-79
2022/11/15 11:29:49;;;;;;;41.28;20.95;;;7.60;99.90;;;;;;5082673;28;20052;-80
2022/11/15 11:33:04;;;;;;;36.75;19.83;;;7.70;99.90;;;;;;5069979;28;20126;-80
2022/11/15 11:35:49;;;;;;;35.25;16.75;;;7.70;99.90;;;;;;5049006;28;20056;-80
2022/11/15 11:39:03;;;;;;;33.65;16.83;;;7.70;99.90;;;;;;5083947;28;20064;-80
2022/11/15 11:41:33;;;;;;;32.45;14.60;;;7.70;99.90;;;;;;5038052;28;20063;-80
2022/11/15 11:44:24;;;;;;;32.58;15.25;;;7.70;99.90;;;;;;5081088;28;20044;-79
2022/11/15 11:46:59;;;;;;;33.78;14.93;;;7.60;99.90;;;;;;5072202;28;20044;-80
2022/11/15 11:49:59;;;;;;;33.92;16.48;;;7.60;99.90;;;;;;5088337;28;20048;-80
2022/11/15 11:52:40;;;;;;;37.97;17.23;;;7.70;99.90;;;;;;5067581;28;20040;-80
2022/11/15 11:55:29;;;;;;;38.20;17.38;;;7.60;99.90;;;;;;5083996;28;20045;-80
2022/11/15 11:58:34;;;;;;;40.63;16.92;;;7.70;99.90;;;;;;5071069;28;20049;-80
2022/11/15 12:01:23;;;;;;;39.63;17.63;;;7.70;99.90;;;;;;5086143;28;20120;-80
2022/11/15 12:04:01;;;;;;;45.47;19.92;;;7.70;99.90;;;;;;5062359;28;20076;-80
2022/11/15 12:06:42;;;;;;;37.40;16.88;;;7.70;99.90;;;;;;5063927;28;20519;-80
2022/11/15 12:09:32;;;;;;;41.85;18.35;;;7.70;99.90;;;;;;5085432;28;20053;-80
2022/11/15 12:12:11;;;;;;;42.47;17.48;;;7.70;99.90;;;;;;5084675;28;20056;-80
2022/11/15 12:14:42;;;;;;;42.13;18.55;;;7.70;99.90;;;;;;5074404;28;20102;-80
2022/11/15 12:17:11;;;;;;;36.23;15.67;;;7.70;99.90;;;;;;5080471;28;20036;-80
2022/11/15 12:19:42;;;;;;;38.85;15.15;;;7.70;99.90;;;;;;5086026;28;20033;-80
2022/11/15 12:22:32;;;;;;;42.67;18.50;;;7.00;99.90;;;;;;5054644;28;20427;-80
2022/11/15 12:25:25;;;;;;;45.38;19.77;;;7.60;99.90;;;;;;5081973;28;20051;-80
2022/11/15 12:28:11;;;;;;;54.43;21.00;;;7.70;99.90;;;;;;5090461;28;20115;-80
2022/11/15 12:31:29;;;;;;;44.60;16.25;;;7.70;99.90;;;;;;5068541;28;20077;-80
2022/11/15 12:33:58;;;;;;;45.45;18.05;;;7.70;99.90;;;;;;5051718;28;20673;-79
2022/11/15 12:36:42;;;;;;;38.92;16.65;;;7.60;99.90;;;;;;5096653;28;20052;-79
2022/11/15 12:39:11;;;;;;;35.60;16.98;;;7.70;99.90;;;;;;5077449;28;20383;-79
2022/11/15 12:42:04;;;;;;;40.92;17.58;;;7.70;99.90;;;;;;5064319;28;20086;-79
2022/11/15 12:44:31;;;;;;;39.88;16.27;;;7.70;99.90;;;;;;5065718;28;20044;-79
2022/11/15 12:47:04;;;;;;;35.03;16.90;;;7.70;99.90;;;;;;5081737;28;20052;-79
2022/11/15 12:49:37;;;;;;;37.75;16.75;;;7.70;99.90;;;;;;5077294;28;20040;-79
2022/11/15 12:52:07;;;;;;;37.70;17.10;;;7.70;99.90;;;;;;5078102;28;20187;-79
2022/11/15 12:54:40;;;;;;;40.17;16.85;;;7.70;99.90;;;;;;5076007;28;20044;-79
2022/11/15 12:57:07;;;;;;;37.60;16.52;;;7.70;99.90;;;;;;5064447;28;20044;-79
2022/11/15 12:59:58;;;;;;;38.65;18.25;;;7.70;99.90;;;;;;5074630;28;20044;-79
2022/11/15 13:02:28;;;;;;;38.33;17.27;;;7.70;99.90;;;;;;5075371;28;20036;-79
2022/11/15 13:05:22;;;;;;;44.38;19.83;;;7.70;99.90;;;;;;5090740;28;20048;-78
2022/11/15 13:07:49;;;;;;;41.97;16.95;;;7.80;99.90;;;;;;5082393;28;20048;-78
2022/11/15 13:10:16;;;;;;;43.50;19.33;;;7.80;99.90;;;;;;5079711;28;20090;-79
2022/11/15 13:12:46;;;;;;;38.72;16.58;;;7.80;99.90;;;;;;5073859;28;20174;-78
2022/11/15 13:15:13;;;;;;;40.53;15.88;;;7.90;99.90;;;;;;5077331;28;20048;-79
2022/11/15 13:17:51;;;;;;;38.42;17.17;;;7.90;99.90;;;;;;5073179;28;20047;-79
2022/11/15 13:20:31;;;;;;;38.38;16.38;;;7.90;99.90;;;;;;5067386;28;20135;-79
2022/11/15 13:23:04;;;;;;;36.25;16.67;;;7.90;99.90;;;;;;5081039;28;20048;-79
2022/11/15 13:25:40;;;;;;;;;;;7.90;99.90;;;;;;5082297;28;20048;-79
2022/11/15 13:28:16;;;;;;;77.40;41.13;;;7.80;99.90;;;;;;5082747;28;19920;-78
2022/11/15 13:30:46;;;;;;;45.60;22.35;;;7.80;99.90;;;;;;5072043;28;20064;-79
2022/11/15 13:33:17;;;;;;;41.08;18.08;;;7.80;99.90;;;;;;5085884;28;20086;-79
2022/11/15 13:35:54;;;;;;;52.90;24.25;;;7.80;99.90;;;;;;5074221;28;20426;-79
2022/11/15 13:38:24;;;;;;;111.35;47.63;;;7.80;99.90;;;;;;5082417;28;20075;-79
2022/11/15 13:40:52;;;;;;;61.25;28.85;;;7.80;99.90;;;;;;5074584;28;20119;-79
2022/11/15 13:43:22;;;;;;;47.97;23.17;;;7.80;99.90;;;;;;5061465;28;20745;-79
2022/11/15 13:46:12;;;;;;;53.35;25.92;;;7.80;99.90;;;;;;5085136;28;20056;-79
2022/11/15 13:48:45;;;;;;;45.30;19.45;;;7.80;99.90;;;;;;5077433;28;20044;-79
2022/11/15 13:51:19;;;;;;;43.00;18.00;;;7.80;99.90;;;;;;5063084;28;20515;-79
2022/11/15 13:54:15;;;;;;;43.95;20.50;;;7.80;99.90;;;;;;5079319;28;20545;-79
2022/11/15 13:56:47;;;;;;;43.92;18.50;;;7.70;99.90;;;;;;5085027;28;20136;-79
2022/11/15 13:59:26;;;;;;;41.33;17.33;;;7.70;99.90;;;;;;5062209;28;20462;-79
2022/11/15 14:01:56;;;;;;;44.97;20.05;;;7.80;99.90;;;;;;5085749;28;20094;-79
2022/11/15 14:04:26;;;;;;;41.90;18.90;;;7.70;99.90;;;;;;5063433;28;20101;-79
2022/11/15 14:06:55;;;;;;;51.95;23.80;;;7.70;99.90;;;;;;5078787;28;20578;-79
2022/11/15 14:09:22;;;;;;;44.80;20.08;;;7.70;99.90;;;;;;5077869;28;20751;-79
2022/11/15 14:11:54;;;;;;;46.55;21.48;;;7.70;99.90;;;;;;5081785;28;20083;-79
2022/11/15 14:14:24;;;;;;;285.00;131.52;;;7.70;99.90;;;;;;5064551;28;21647;-79
2022/11/15 14:16:57;;;;;;;158.02;72.05;;;7.70;99.90;;;;;;5075161;28;20043;-79
2022/11/15 14:19:24;;;;;;;;;;;7.70;99.90;;;;;;5080790;28;20499;-79
2022/11/15 14:22:14;;;;;;;124.72;73.85;;;7.70;99.90;;;;;;5062459;28;19943;-79
2022/11/15 14:24:44;;;;;;;50.20;26.63;;;7.70;99.90;;;;;;5079997;28;20048;-79
2022/11/15 14:27:27;;;;;;;48.28;21.95;;;7.70;99.90;;;;;;5070197;28;20109;-79